createdAt,value
2018-03-22T00:02:22.472Z,101340.61
2018-03-22T00:04:49.947Z,101343.66
2018-03-22T00:07:17.410Z,101336.13
2018-03-22T00:09:44.903Z,101339.59
2018-03-22T00:12:12.358Z,101330.88
2018-03-22T00:14:39.819Z,101328.29
2018-03-22T00:17:07.306Z,101322.88
2018-03-22T00:19:34.766Z,101319.23
2018-03-22T00:22:02.278Z,101315.73
2018-03-22T00:24:29.749Z,101310.78
2018-03-22T00:26:57.210Z,101318.28
2018-03-22T00:29:24.692Z,101311.72
2018-03-22T00:31:52.150Z,101308.06
2018-03-22T00:34:19.778Z,101302.03
2018-03-22T00:36:47.245Z,101299.48
2018-03-22T00:39:14.745Z,101292.55
2018-03-22T00:41:42.181Z,101291.16
2018-03-22T00:44:09.629Z,101290.94
2018-03-22T00:46:37.102Z,101289.36
2018-03-22T00:49:04.553Z,101290.58
2018-03-22T00:51:32.022Z,101286.74
2018-03-22T00:53:59.490Z,101284.42
2018-03-22T00:56:26.941Z,101280.64
2018-03-22T00:58:54.421Z,101283.53
2018-03-22T01:01:21.876Z,101274.24
2018-03-22T01:03:49.349Z,101276.75
2018-03-22T01:06:16.817Z,101273.80
2018-03-22T01:08:44.294Z,101278.22
2018-03-22T01:11:12.135Z,101288.02
2018-03-22T01:13:39.582Z,101284.21
2018-03-22T01:16:07.029Z,101284.52
2018-03-22T01:18:34.501Z,101277.71
2018-03-22T01:21:01.950Z,101269.72
2018-03-22T01:23:29.597Z,101266.67
2018-03-22T01:25:57.041Z,101267.55
2018-03-22T01:28:24.489Z,101267.55
2018-03-22T01:30:51.965Z,101261.00
2018-03-22T01:33:19.423Z,101258.25
2018-03-22T01:35:46.942Z,101256.90
2018-03-22T01:38:14.389Z,101261.98
2018-03-22T01:40:41.859Z,101262.42
2018-03-22T01:43:09.341Z,101259.71
2018-03-22T01:45:36.813Z,101262.00
2018-03-22T01:48:04.301Z,101253.94
2018-03-22T01:50:31.749Z,101251.55
2018-03-22T01:53:11.097Z,101250.09
2018-03-22T01:55:38.557Z,101240.30
2018-03-22T01:58:06.341Z,101237.13
2018-03-22T02:00:33.801Z,101230.00
2018-03-22T02:03:01.253Z,101221.54
2018-03-22T02:05:28.732Z,101219.95
2018-03-22T02:07:56.182Z,101212.48
2018-03-22T02:10:23.908Z,101213.83
2018-03-22T02:12:51.356Z,101209.48
2018-03-22T02:15:18.817Z,101201.88
2018-03-22T02:17:46.285Z,101198.12
2018-03-22T02:20:13.736Z,101198.98
2018-03-22T02:22:41.239Z,101197.73
2018-03-22T02:25:08.695Z,101189.25
2018-03-22T02:27:36.150Z,101187.83
2018-03-22T02:30:03.619Z,101186.31
2018-03-22T02:32:31.104Z,101182.61
2018-03-22T02:34:58.581Z,101181.77
2018-03-22T02:37:26.065Z,101171.61
2018-03-22T02:39:53.517Z,101171.03
2018-03-22T02:42:21.009Z,101170.39
2018-03-22T02:44:48.461Z,101165.14
2018-03-22T02:47:15.958Z,101155.96
2018-03-22T02:49:43.430Z,101149.09
2018-03-22T02:52:10.886Z,101152.34
2018-03-22T02:54:38.362Z,101148.92
2018-03-22T02:57:05.834Z,101141.72
2018-03-22T02:59:33.286Z,101138.70
2018-03-22T03:02:00.790Z,101133.41
2018-03-22T03:04:28.241Z,101136.91
2018-03-22T03:06:55.695Z,101134.00
2018-03-22T03:09:23.170Z,101133.78
2018-03-22T03:11:50.653Z,101131.67
2018-03-22T03:14:18.098Z,101134.12
2018-03-22T03:16:45.577Z,101123.59
2018-03-22T03:19:13.033Z,101117.70
2018-03-22T03:21:40.479Z,101104.28
2018-03-22T03:24:08.070Z,101105.25
2018-03-22T03:26:35.525Z,101094.87
2018-03-22T03:29:02.965Z,101095.86
2018-03-22T03:31:30.430Z,101093.63
2018-03-22T03:33:57.881Z,101090.73
2018-03-22T03:36:25.327Z,101079.80
2018-03-22T03:38:52.790Z,101087.09
2018-03-22T03:41:20.293Z,101077.31
2018-03-22T03:43:47.714Z,101074.66
2018-03-22T03:46:15.176Z,101071.16
2018-03-22T03:48:42.625Z,101068.19
2018-03-22T03:51:10.111Z,101061.94
2018-03-22T03:53:37.625Z,101057.80
2018-03-22T03:56:05.074Z,101062.91
2018-03-22T03:58:32.535Z,101052.73
2018-03-22T04:01:00.017Z,101052.60
2018-03-22T04:03:27.469Z,101047.63
2018-03-22T04:05:54.917Z,101042.88
2018-03-22T04:08:22.398Z,101036.27
2018-03-22T04:10:49.860Z,101044.09
2018-03-22T04:13:17.313Z,101034.72
2018-03-22T04:15:44.781Z,101035.95
2018-03-22T04:18:12.232Z,101024.98
2018-03-22T04:20:39.680Z,101018.11
2018-03-22T04:23:07.158Z,101017.24
2018-03-22T04:25:34.610Z,101013.23
2018-03-22T04:28:02.073Z,101023.89
2018-03-22T04:30:29.577Z,101017.58
2018-03-22T04:32:57.021Z,101016.23
2018-03-22T04:35:24.471Z,101007.72
2018-03-22T04:37:51.958Z,101005.58
2018-03-22T04:40:19.412Z,101003.71
2018-03-22T04:42:46.866Z,100999.72
2018-03-22T04:45:14.374Z,100991.44
2018-03-22T04:47:41.818Z,100989.75
2018-03-22T04:50:09.265Z,100985.31
2018-03-22T04:52:36.902Z,100990.58
2018-03-22T04:55:04.373Z,100987.36
2018-03-22T04:57:31.818Z,100990.79
2018-03-22T04:59:59.418Z,100986.37
2018-03-22T05:02:26.869Z,100970.71
2018-03-22T05:04:54.317Z,100965.14
2018-03-22T05:07:22.065Z,100960.35
2018-03-22T05:09:49.517Z,100949.34
2018-03-22T05:12:16.977Z,100948.58
2018-03-22T05:14:44.841Z,100939.59
2018-03-22T05:17:12.298Z,100930.92
2018-03-22T05:19:39.752Z,100927.46
2018-03-22T05:22:07.234Z,100937.63
2018-03-22T05:24:34.689Z,100928.17
2018-03-22T05:27:02.163Z,100929.14
2018-03-22T05:29:29.760Z,100928.52
2018-03-22T05:31:57.253Z,100921.53
2018-03-22T05:34:24.701Z,100929.37
2018-03-22T05:36:52.275Z,100925.41
2018-03-22T05:39:19.726Z,100925.20
2018-03-22T05:41:47.173Z,100922.39
2018-03-22T05:44:14.793Z,100912.41
2018-03-22T05:46:42.241Z,100911.53
2018-03-22T05:49:09.690Z,100913.42
2018-03-22T05:51:37.199Z,100904.98
2018-03-22T05:54:04.649Z,100903.36
2018-03-22T05:56:32.130Z,100907.09
2018-03-22T05:58:59.621Z,100904.53
2018-03-22T06:01:27.091Z,100905.34
2018-03-22T06:03:54.549Z,100903.81
2018-03-22T06:06:22.354Z,100904.90
2018-03-22T06:08:49.820Z,100898.70
2018-03-22T06:11:17.278Z,100897.19
2018-03-22T06:13:44.765Z,100886.17
2018-03-22T06:16:12.211Z,100891.23
2018-03-22T06:18:39.661Z,100879.12
2018-03-22T06:21:07.149Z,100867.91
2018-03-22T06:23:34.603Z,100870.20
2018-03-22T06:26:02.041Z,100874.28
2018-03-22T06:28:29.757Z,100863.92
2018-03-22T06:30:57.206Z,100865.31
2018-03-22T06:33:24.657Z,100867.56
2018-03-22T06:35:52.257Z,100864.16
2018-03-22T06:38:19.702Z,100861.16
2018-03-22T06:40:47.161Z,100865.19
2018-03-22T06:43:14.834Z,100861.41
2018-03-22T06:45:42.274Z,100866.32
2018-03-22T06:48:09.718Z,100857.17
2018-03-22T06:50:37.186Z,100853.31
2018-03-22T06:53:04.641Z,100851.20
2018-03-22T06:55:32.117Z,100845.94
2018-03-22T06:57:59.558Z,100842.46
2018-03-22T07:00:26.993Z,100843.78
2018-03-22T07:02:54.464Z,100827.63
2018-03-22T07:05:21.913Z,100823.75
2018-03-22T07:07:49.488Z,100829.48
2018-03-22T07:10:16.949Z,100824.73
2018-03-22T07:12:44.404Z,100817.34
2018-03-22T07:15:11.881Z,100805.19
2018-03-22T07:17:39.337Z,100800.38
2018-03-22T07:20:06.814Z,100804.88
2018-03-22T07:22:34.281Z,100800.94
2018-03-22T07:25:01.726Z,100798.18
2018-03-22T07:27:29.197Z,100802.33
2018-03-22T07:29:56.655Z,100796.32
2018-03-22T07:32:24.237Z,100792.27
2018-03-22T07:34:51.691Z,100787.59
2018-03-22T07:37:19.142Z,100778.94
2018-03-22T07:39:46.621Z,100774.59
2018-03-22T07:42:14.086Z,100774.12
2018-03-22T07:44:41.591Z,100784.66
2018-03-22T07:47:09.046Z,100783.33
2018-03-22T07:49:36.524Z,100782.46
2018-03-22T07:52:03.998Z,100780.91
2018-03-22T07:54:31.450Z,100779.47
2018-03-22T07:56:59.170Z,100774.64
2018-03-22T07:59:26.625Z,100774.31
2018-03-22T08:01:54.093Z,100767.77
2018-03-22T08:04:21.566Z,100761.26
2018-03-22T08:06:49.038Z,100756.95
2018-03-22T08:09:16.562Z,100753.89
2018-03-22T08:11:44.014Z,100733.72
2018-03-22T08:14:11.498Z,100739.36
2018-03-22T08:16:38.982Z,100738.23
2018-03-22T08:19:06.442Z,100739.11
2018-03-22T08:21:34.278Z,100749.26
2018-03-22T08:24:01.725Z,100757.65
2018-03-22T08:26:29.209Z,100756.72
2018-03-22T08:28:56.678Z,100766.42
2018-03-22T08:31:24.125Z,100776.95
2018-03-22T08:33:51.641Z,100781.28
2018-03-22T08:36:19.102Z,100770.25
2018-03-22T08:38:47.131Z,100770.70
2018-03-22T08:41:14.675Z,100772.94
2018-03-22T08:43:42.075Z,100778.09
2018-03-22T08:46:09.798Z,100775.53
2018-03-22T08:48:37.245Z,100769.81
2018-03-22T08:51:04.705Z,100771.13
2018-03-22T08:53:32.173Z,100762.79
2018-03-22T08:55:59.621Z,100764.50
2018-03-22T08:58:27.246Z,100754.34
2018-03-22T09:00:54.694Z,100747.26
2018-03-22T09:03:22.152Z,100753.84
2018-03-22T09:05:49.622Z,100749.77
2018-03-22T09:08:17.081Z,100745.86
2018-03-22T09:10:44.573Z,100737.06
2018-03-22T09:13:12.045Z,100744.03
2018-03-22T09:15:39.541Z,100733.50
2018-03-22T09:18:07.009Z,100731.28
2018-03-22T09:20:34.467Z,100733.47
2018-03-22T09:23:01.991Z,100724.22
2018-03-22T09:25:29.442Z,100723.34
2018-03-22T09:27:56.977Z,100724.08
2018-03-22T09:30:24.753Z,100712.02
2018-03-22T09:32:52.206Z,100706.31
2018-03-22T09:35:19.801Z,100704.41
2018-03-22T09:37:47.259Z,100697.80
2018-03-22T09:40:14.717Z,100696.50
2018-03-22T09:42:42.189Z,100700.96
2018-03-22T09:45:09.641Z,100689.48
2018-03-22T09:47:37.121Z,100686.47
2018-03-22T09:50:04.610Z,100689.14
2018-03-22T09:52:33.009Z,100683.46
2018-03-22T09:55:00.481Z,100674.30
2018-03-22T09:57:27.950Z,100663.41
2018-03-22T09:59:55.617Z,100662.45
2018-03-22T10:02:23.080Z,100652.39
2018-03-22T10:04:50.538Z,100641.95
2018-03-22T10:07:18.013Z,100627.09
2018-03-22T10:09:45.462Z,100624.86
2018-03-22T10:12:12.963Z,100623.48
2018-03-22T10:14:40.425Z,100611.59
2018-03-22T10:17:07.897Z,100605.94
2018-03-22T10:19:35.377Z,100595.81
2018-03-22T10:22:02.830Z,100587.18
2018-03-22T10:24:30.305Z,100585.44
2018-03-22T10:26:57.770Z,100584.22
2018-03-22T10:29:25.240Z,100578.48
2018-03-22T10:31:52.709Z,100576.77
2018-03-22T10:34:20.174Z,100577.60
2018-03-22T10:36:47.658Z,100589.95
2018-03-22T10:39:15.102Z,100583.38
2018-03-22T10:41:42.554Z,100581.66
2018-03-22T10:44:10.029Z,100575.05
2018-03-22T10:46:37.486Z,100568.04
2018-03-22T10:49:05.209Z,100565.84
2018-03-22T10:51:32.657Z,100563.25
2018-03-22T10:54:00.107Z,100557.55
2018-03-22T10:56:28.539Z,100544.84
2018-03-22T10:58:55.986Z,100544.86
2018-03-22T11:01:29.320Z,100542.23
2018-03-22T11:03:56.773Z,100541.77
2018-03-22T11:06:24.225Z,100535.63
2018-03-22T11:08:51.713Z,100532.98
2018-03-22T11:11:19.192Z,100530.36
2018-03-22T11:13:47.046Z,100528.17
2018-03-22T11:16:14.517Z,100518.09
2018-03-22T11:18:41.965Z,100520.72
2018-03-22T11:21:09.435Z,100512.81
2018-03-22T11:23:36.891Z,100505.36
2018-03-22T11:26:04.725Z,100504.47
2018-03-22T11:28:32.196Z,100499.22
2018-03-22T11:30:59.646Z,100502.72
2018-03-22T11:33:27.118Z,100502.70
2018-03-22T11:35:54.573Z,100506.22
2018-03-22T11:38:22.225Z,100502.70
2018-03-22T11:40:49.694Z,100510.14
2018-03-22T11:43:17.148Z,100512.36
2018-03-22T11:45:44.623Z,100517.20
2018-03-22T11:48:12.097Z,100505.30
2018-03-22T11:50:39.650Z,100505.78
2018-03-22T11:53:07.121Z,100497.91
2018-03-22T11:55:34.576Z,100495.27
2018-03-22T11:58:02.056Z,100485.61
2018-03-22T12:00:29.507Z,100485.61
2018-03-22T12:02:57.202Z,100486.49
2018-03-22T12:05:24.675Z,100478.51
2018-03-22T12:07:52.139Z,100479.45
2018-03-22T12:10:19.620Z,100475.94
2018-03-22T12:12:47.062Z,100467.16
2018-03-22T12:15:14.681Z,100466.26
2018-03-22T12:17:42.174Z,100454.80
2018-03-22T12:20:09.624Z,100453.00
2018-03-22T12:22:37.110Z,100446.55
2018-03-22T12:25:04.592Z,100443.87
2018-03-22T12:27:32.366Z,100435.95
2018-03-22T12:29:59.814Z,100427.17
2018-03-22T12:32:27.259Z,100425.84
2018-03-22T12:34:54.739Z,100422.73
2018-03-22T12:37:22.190Z,100415.27
2018-03-22T12:39:49.845Z,100411.27
2018-03-22T12:42:17.313Z,100402.91
2018-03-22T12:44:44.757Z,100401.98
2018-03-22T12:47:12.258Z,100404.23
2018-03-22T12:49:39.707Z,100401.09
2018-03-22T12:52:07.400Z,100399.03
2018-03-22T12:54:34.869Z,100400.26
2018-03-22T12:57:02.315Z,100394.45
2018-03-22T12:59:29.793Z,100399.08
2018-03-22T13:01:57.237Z,100394.22
2018-03-22T13:04:24.865Z,100390.28
2018-03-22T13:06:52.309Z,100381.82
2018-03-22T13:09:19.755Z,100376.56
2018-03-22T13:11:47.225Z,100375.24
2018-03-22T13:14:14.694Z,100375.17
2018-03-22T13:16:42.314Z,100372.11
2018-03-22T13:19:09.766Z,100373.44
2018-03-22T13:21:37.221Z,100371.29
2018-03-22T13:24:04.681Z,100365.06
2018-03-22T13:26:32.126Z,100369.95
2018-03-22T13:28:59.970Z,100361.47
2018-03-22T13:31:27.416Z,100360.50
2018-03-22T13:33:54.861Z,100358.30
2018-03-22T13:36:22.335Z,100353.09
2018-03-22T13:38:49.825Z,100348.98
2018-03-22T13:41:17.334Z,100337.62
2018-03-22T13:43:44.777Z,100339.58
2018-03-22T13:46:12.228Z,100326.27
2018-03-22T13:48:39.693Z,100326.70
2018-03-22T13:51:07.138Z,100330.81
2018-03-22T13:53:34.617Z,100343.78
2018-03-22T13:56:02.061Z,100352.25
2018-03-22T13:58:29.519Z,100340.88
2018-03-22T14:00:56.989Z,100329.04
2018-03-22T14:03:24.430Z,100319.33
2018-03-22T14:05:51.934Z,100318.39
2018-03-22T14:08:19.373Z,100319.55
2018-03-22T14:10:46.817Z,100317.73
2018-03-22T14:13:14.309Z,100324.00
2018-03-22T14:15:41.754Z,100323.62
2018-03-22T14:18:09.581Z,100319.61
2018-03-22T14:20:37.025Z,100313.55
2018-03-22T14:23:04.462Z,100315.98
2018-03-22T14:25:31.958Z,100315.28
2018-03-22T14:27:59.396Z,100313.36
2018-03-22T14:30:26.879Z,100307.76
2018-03-22T14:32:54.323Z,100301.71
2018-03-22T14:35:21.775Z,100297.70
2018-03-22T14:37:49.274Z,100292.02
2018-03-22T14:40:16.722Z,100287.30
2018-03-22T14:42:44.199Z,100292.12
2018-03-22T14:45:11.638Z,100284.69
2018-03-22T14:47:39.110Z,100278.89
2018-03-22T14:50:06.582Z,100270.95
2018-03-22T14:52:34.021Z,100265.78
2018-03-22T14:55:01.666Z,100265.80
2018-03-22T14:57:29.116Z,100278.94
2018-03-22T14:59:56.598Z,100268.02
2018-03-22T15:02:24.085Z,100274.05
2018-03-22T15:04:51.549Z,100275.84
2018-03-22T15:07:19.024Z,100274.92
2018-03-22T15:09:46.484Z,100272.39
2018-03-22T15:12:13.960Z,100279.69
2018-03-22T15:14:41.417Z,100278.86
2018-03-22T15:17:08.868Z,100281.00
2018-03-22T15:19:36.353Z,100281.45
2018-03-22T15:22:03.801Z,100271.38
2018-03-22T15:24:31.240Z,100269.87
2018-03-22T15:26:58.712Z,100267.84
2018-03-22T15:29:26.161Z,100262.25
2018-03-22T15:31:53.986Z,100256.88
2018-03-22T15:34:21.430Z,100247.93
2018-03-22T15:36:48.888Z,100254.69
2018-03-22T15:39:16.369Z,100255.68
2018-03-22T15:41:43.818Z,100258.60
2018-03-22T15:44:11.307Z,100253.06
2018-03-22T15:46:38.760Z,100260.48
2018-03-22T15:49:06.197Z,100267.35
2018-03-22T15:51:33.663Z,100265.27
2018-03-22T15:54:01.101Z,100257.48
2018-03-22T15:56:28.745Z,100264.92
2018-03-22T15:58:56.417Z,100267.17
2018-03-22T16:01:23.873Z,100273.47
2018-03-22T16:03:51.342Z,100268.88
2018-03-22T16:06:18.803Z,100270.73
2018-03-22T16:08:46.414Z,100265.38
2018-03-22T16:11:13.874Z,100264.16
2018-03-22T16:13:41.321Z,100268.92
2018-03-22T16:16:08.810Z,100266.02
2018-03-22T16:18:36.254Z,100259.27
2018-03-22T16:21:03.726Z,100267.44
2018-03-22T16:23:31.162Z,100267.98
2018-03-22T16:25:58.613Z,100271.59
2018-03-22T16:28:26.079Z,100266.36
2018-03-22T16:30:53.541Z,100269.41
2018-03-22T16:33:21.035Z,100273.36
2018-03-22T16:35:48.482Z,100262.72
2018-03-22T16:38:15.934Z,100263.26
2018-03-22T16:40:43.439Z,100263.59
2018-03-22T16:43:11.233Z,100266.33
2018-03-22T16:45:38.883Z,100263.70
2018-03-22T16:48:06.321Z,100264.98
2018-03-22T16:50:33.777Z,100268.42
2018-03-22T16:53:01.257Z,100261.89
2018-03-22T16:55:28.701Z,100266.67
2018-03-22T16:57:56.153Z,100268.45
2018-03-22T17:00:23.631Z,100267.86
2018-03-22T17:02:51.077Z,100264.55
2018-03-22T17:05:18.813Z,100263.15
2018-03-22T17:07:46.275Z,100266.61
2018-03-22T17:10:13.728Z,100260.14
2018-03-22T17:12:41.210Z,100266.70
2018-03-22T17:15:08.649Z,100264.36
2018-03-22T17:17:36.381Z,100263.55
2018-03-22T17:20:03.827Z,100258.23
2018-03-22T17:22:31.270Z,100257.87
2018-03-22T17:24:58.746Z,100255.23
2018-03-22T17:27:26.188Z,100251.77
2018-03-22T17:29:53.930Z,100250.92
2018-03-22T17:32:21.369Z,100255.78
2018-03-22T17:34:49.055Z,100253.64
2018-03-22T17:37:16.521Z,100256.78
2018-03-22T17:39:43.966Z,100260.72
2018-03-22T17:42:11.455Z,100252.38
2018-03-22T17:44:38.910Z,100251.03
2018-03-22T17:47:07.217Z,100253.70
2018-03-22T17:49:34.694Z,100253.37
2018-03-22T17:52:02.150Z,100246.33
2018-03-22T17:54:29.970Z,100248.09
2018-03-22T17:56:57.414Z,100241.88
2018-03-22T17:59:24.898Z,100242.31
2018-03-22T18:01:52.386Z,100245.79
2018-03-22T18:04:19.840Z,100242.75
2018-03-22T18:06:47.326Z,100244.48
2018-03-22T18:09:14.801Z,100245.38
2018-03-22T18:11:42.276Z,100244.06
2018-03-22T18:14:09.745Z,100244.03
2018-03-22T18:16:37.229Z,100245.36
2018-03-22T18:19:04.711Z,100244.02
2018-03-22T18:21:32.165Z,100246.63
2018-03-22T18:23:59.610Z,100249.27
2018-03-22T18:26:27.095Z,100243.98
2018-03-22T18:28:54.575Z,100244.03
2018-03-22T18:31:22.274Z,100235.27
2018-03-22T18:33:49.714Z,100233.94
2018-03-22T18:36:17.167Z,100237.91
2018-03-22T18:38:44.669Z,100233.51
2018-03-22T18:41:12.134Z,100225.20
2018-03-22T18:43:39.618Z,100232.27
2018-03-22T18:46:07.081Z,100236.13
2018-03-22T18:48:34.522Z,100231.36
2018-03-22T18:51:02.014Z,100226.57
2018-03-22T18:53:29.454Z,100231.34
2018-03-22T18:55:57.114Z,100233.53
2018-03-22T18:58:24.558Z,100229.56
2018-03-22T19:00:52.003Z,100229.56
2018-03-22T19:03:19.490Z,100233.50
2018-03-22T19:05:46.942Z,100224.66
2018-03-22T19:08:14.981Z,100228.23
2018-03-22T19:10:42.453Z,100226.93
2018-03-22T19:13:09.893Z,100227.32
2018-03-22T19:15:37.362Z,100229.55
2018-03-22T19:18:04.817Z,100228.23
2018-03-22T19:20:32.429Z,100216.01
2018-03-22T19:22:59.903Z,100220.87
2018-03-22T19:25:27.353Z,100219.97
2018-03-22T19:27:54.950Z,100216.86
2018-03-22T19:30:22.407Z,100217.69
2018-03-22T19:32:50.002Z,100226.48
2018-03-22T19:35:17.513Z,100223.39
2018-03-22T19:37:45.887Z,100222.09
2018-03-22T19:40:13.358Z,100219.89
2018-03-22T19:42:40.828Z,100220.75
2018-03-22T19:45:08.547Z,100225.13
2018-03-22T19:47:35.981Z,100219.80
2018-03-22T19:50:04.246Z,100212.22
2018-03-22T19:52:31.726Z,100211.44
2018-03-22T19:54:59.170Z,100210.13
2018-03-22T19:57:26.877Z,100207.92
2018-03-22T19:59:54.318Z,100210.59
2018-03-22T20:02:21.764Z,100212.78
2018-03-22T20:04:49.241Z,100209.72
2018-03-22T20:07:18.566Z,100212.75
2018-03-22T20:09:46.345Z,100209.25
2018-03-22T20:12:13.792Z,100209.72
2018-03-22T20:14:41.266Z,100209.25
2018-03-22T20:17:08.796Z,100207.52
2018-03-22T20:19:36.242Z,100202.12
2018-03-22T20:22:03.730Z,100207.52
2018-03-22T20:24:31.468Z,100208.46
2018-03-22T20:26:58.945Z,100197.95
2018-03-22T20:29:26.581Z,100203.65
2018-03-22T20:31:54.020Z,100186.34
2018-03-22T20:34:22.462Z,100189.13
2018-03-22T20:36:49.910Z,100185.65
2018-03-22T20:39:17.362Z,100192.72
2018-03-22T20:41:44.875Z,100197.85
2018-03-22T20:44:17.550Z,100197.02
2018-03-22T20:46:47.873Z,100197.95
2018-03-22T20:49:15.340Z,100196.25
2018-03-22T20:51:42.792Z,100200.16
2018-03-22T20:54:10.263Z,100197.95
2018-03-22T20:56:37.725Z,100197.16
2018-03-22T20:59:05.204Z,100193.27
2018-03-22T21:01:32.664Z,100193.66
2018-03-22T21:04:00.130Z,100187.48
2018-03-22T21:06:27.606Z,100194.55
2018-03-22T21:08:55.090Z,100188.42
2018-03-22T21:11:22.575Z,100193.72
2018-03-22T21:13:50.034Z,100184.55
2018-03-22T21:16:17.499Z,100186.77
2018-03-22T21:18:44.957Z,100189.02
2018-03-22T21:21:12.406Z,100192.55
2018-03-22T21:23:39.933Z,100197.42
2018-03-22T21:26:07.379Z,100186.97
2018-03-22T21:28:34.839Z,100183.00
2018-03-22T21:31:02.296Z,100183.98
2018-03-22T21:33:29.765Z,100185.21
2018-03-22T21:35:57.387Z,100196.64
2018-03-22T21:38:24.864Z,100185.27
2018-03-22T21:40:52.318Z,100190.44
2018-03-22T21:43:19.778Z,100190.94
2018-03-22T21:45:47.218Z,100188.66
2018-03-22T21:48:14.702Z,100185.63
2018-03-22T21:50:48.081Z,100185.21
2018-03-22T21:53:15.569Z,100180.86
2018-03-22T21:55:43.042Z,100175.59
2018-03-22T21:58:10.498Z,100177.80
2018-03-22T22:00:37.970Z,100171.59
2018-03-22T22:03:05.475Z,100166.73
2018-03-22T22:05:33.057Z,100161.00
2018-03-22T22:08:00.501Z,100164.54
2018-03-22T22:10:27.979Z,100161.91
2018-03-22T22:12:55.453Z,100154.48
2018-03-22T22:15:22.946Z,100156.66
2018-03-22T22:17:50.657Z,100152.30
2018-03-22T22:20:18.100Z,100148.35
2018-03-22T22:22:45.557Z,100147.03
2018-03-22T22:25:13.032Z,100147.44
2018-03-22T22:27:40.493Z,100147.32
2018-03-22T22:30:07.978Z,100137.58
2018-03-22T22:32:35.430Z,100142.39
2018-03-22T22:35:02.893Z,100140.61
2018-03-22T22:37:30.378Z,100143.23
2018-03-22T22:39:57.842Z,100140.99
2018-03-22T22:42:25.409Z,100141.89
2018-03-22T22:44:52.865Z,100136.61
2018-03-22T22:47:20.338Z,100132.66
2018-03-22T22:49:47.841Z,100129.13
2018-03-22T22:52:15.297Z,100130.44
2018-03-22T22:54:43.145Z,100124.75
2018-03-22T22:57:10.608Z,100125.29
2018-03-22T22:59:38.061Z,100123.05
2018-03-22T23:02:05.552Z,100119.03
2018-03-22T23:04:33.001Z,100108.13
2018-03-22T23:07:00.489Z,100108.14
2018-03-22T23:09:27.961Z,100106.83
2018-03-22T23:11:55.415Z,100108.53
2018-03-22T23:14:22.885Z,100111.13
2018-03-22T23:16:50.349Z,100105.86
2018-03-22T23:19:17.797Z,100109.80
2018-03-22T23:21:45.285Z,100108.02
2018-03-22T23:24:12.783Z,100110.59
2018-03-22T23:26:40.229Z,100106.62
2018-03-22T23:29:07.730Z,100103.53
2018-03-22T23:31:35.193Z,100104.87
2018-03-22T23:34:02.641Z,100102.70
2018-03-22T23:36:30.136Z,100101.35
2018-03-22T23:38:57.602Z,100099.61
2018-03-22T23:41:25.084Z,100093.91
2018-03-22T23:43:52.591Z,100096.25
2018-03-22T23:46:20.037Z,100092.73
2018-03-22T23:48:47.485Z,100083.95
2018-03-22T23:51:14.961Z,100090.12
2018-03-22T23:53:42.419Z,100083.54
2018-03-22T23:56:09.880Z,100086.16
2018-03-22T23:58:37.350Z,100078.70
